Frio Chikuma — 3FWG8 — position and weather

sailwx.info

Track history (hours):
 
Tides and Currents Weather Stations Pressure Air Temp Water Temp Dewpoint Dewpoint Depression Visibility Wind Speed Wind Dir Waves Ship Positions

Frio Chikuma

Last reported at 2015-Aug-30 16:05 UTC. Time now 2015-Sep-01 20:24 UTC.
Position S 29°58' W 044°29'.

Length 180 m; draft 5.8 m.

Type: Cargo ship. MMSI: 353306000.

Date/timePositionNaut miles runAvg speedWind from/ knotsBaromVisibWave heightAir tempDewpointWater temp
2015-Aug-30 16:05S 29°58' W 044°29'1315.9
2015-Aug-30 15:15S 30°06' W 044°41'8915.5
2015-Aug-30 09:30S 30°60' W 046°03'1515.2
2015-Aug-30 08:33S 31°09' W 046°16'1515.3
2015-Aug-30 07:33S 31°18' W 046°31'1515.0
2015-Aug-30 06:32S 31°27' W 046°45'1514.9
2015-Aug-30 05:33S 31°36' W 046°59'1615.0
2015-Aug-30 04:30S 31°45' W 047°13'1415.0
2015-Aug-30 03:33S 31°54' W 047°27'3015.1
2015-Aug-30 01:33S 32°12' W 047°55'1515.0
2015-Aug-30 00:31S 32°22' W 048°10'  
Track history (hours):
 
Tides and Currents Weather Stations Pressure Air Temp Water Temp Dewpoint Dewpoint Depression Visibility Wind Speed Wind Dir Waves Ship Positions

Frio Chikuma

Last reported at 2015-Aug-30 16:05 UTC. Time now 2015-Sep-01 20:24 UTC.
Position S 29°58' W 044°29'.

Length 180 m; draft 5.8 m.

Type: Cargo ship. MMSI: 353306000.

Date/timePositionNaut miles runAvg speedWind from/ knotsBaromVisibWave heightAir tempDewpointWater temp
2015-Aug-30 16:05S 29°58' W 044°29'1315.9
2015-Aug-30 15:15S 30°06' W 044°41'8915.5
2015-Aug-30 09:30S 30°60' W 046°03'1515.2
2015-Aug-30 08:33S 31°09' W 046°16'1515.3
2015-Aug-30 07:33S 31°18' W 046°31'1515.0
2015-Aug-30 06:32S 31°27' W 046°45'1514.9
2015-Aug-30 05:33S 31°36' W 046°59'1615.0
2015-Aug-30 04:30S 31°45' W 047°13'1415.0
2015-Aug-30 03:33S 31°54' W 047°27'3015.1
2015-Aug-30 01:33S 32°12' W 047°55'1515.0
2015-Aug-30 00:31S 32°22' W 048°10'  

Dump ship's entire track history